sensor_id;sensor_type;location;lat;lon;timestamp;temperature;humidity
46438;DHT22;32137;48.728;9.142;2023-08-06T00:01:49;16.50;99.90
46438;DHT22;32137;48.728;9.142;2023-08-06T00:04:14;16.50;99.90
46438;DHT22;32137;48.728;9.142;2023-08-06T00:06:39;16.50;99.90
46438;DHT22;32137;48.728;9.142;2023-08-06T00:09:05;16.40;99.90
46438;DHT22;32137;48.728;9.142;2023-08-06T00:11:30;16.40;99.90
46438;DHT22;32137;48.728;9.142;2023-08-06T00:13:56;16.40;77.40
46438;DHT22;32137;48.728;9.142;2023-08-06T00:16:21;16.30;85.50
46438;DHT22;32137;48.728;9.142;2023-08-06T00:18:47;16.30;46.10
46438;DHT22;32137;48.728;9.142;2023-08-06T00:21:12;16.30;27.90
46438;DHT22;32137;48.728;9.142;2023-08-06T00:23:38;16.30;42.30
46438;DHT22;32137;48.728;9.142;2023-08-06T00:26:04;16.20;25.80
46438;DHT22;32137;48.728;9.142;2023-08-06T00:28:29;16.20;37.30
46438;DHT22;32137;48.728;9.142;2023-08-06T00:30:55;16.10;47.30
46438;DHT22;32137;48.728;9.142;2023-08-06T00:33:24;16.00;31.60
46438;DHT22;32137;48.728;9.142;2023-08-06T00:35:49;16.00;5.60
46438;DHT22;32137;48.728;9.142;2023-08-06T00:38:15;15.90;12.20
46438;DHT22;32137;48.728;9.142;2023-08-06T00:40:40;15.90;1.00
46438;DHT22;32137;48.728;9.142;2023-08-06T00:43:06;15.80;1.00
46438;DHT22;32137;48.728;9.142;2023-08-06T00:45:33;15.80;1.00
46438;DHT22;32137;48.728;9.142;2023-08-06T00:47:59;15.80;1.00
46438;DHT22;32137;48.728;9.142;2023-08-06T00:50:25;15.80;1.00
46438;DHT22;32137;48.728;9.142;2023-08-06T00:52:50;15.70;1.00
46438;DHT22;32137;48.728;9.142;2023-08-06T00:55:16;15.60;1.00
46438;DHT22;32137;48.728;9.142;2023-08-06T00:57:42;15.60;1.00
46438;DHT22;32137;48.728;9.142;2023-08-06T01:00:07;15.60;1.00
46438;DHT22;32137;48.728;9.142;2023-08-06T01:02:33;15.60;1.00
46438;DHT22;32137;48.728;9.142;2023-08-06T01:04:58;15.60;1.00
46438;DHT22;32137;48.728;9.142;2023-08-06T01:07:31;15.60;1.00
46438;DHT22;32137;48.728;9.142;2023-08-06T01:15:24;15.60;99.90
46438;DHT22;32137;48.728;9.142;2023-08-06T01:17:53;15.60;99.90
46438;DHT22;32137;48.728;9.142;2023-08-06T01:20:18;15.50;1.00
46438;DHT22;32137;48.728;9.142;2023-08-06T01:22:44;15.50;1.00
46438;DHT22;32137;48.728;9.142;2023-08-06T01:25:09;15.50;99.90
46438;DHT22;32137;48.728;9.142;2023-08-06T01:27:45;15.50;99.90
46438;DHT22;32137;48.728;9.142;2023-08-06T01:30:12;15.50;99.90
46438;DHT22;32137;48.728;9.142;2023-08-06T01:32:39;15.50;99.90
46438;DHT22;32137;48.728;9.142;2023-08-06T01:35:07;15.40;99.90
46438;DHT22;32137;48.728;9.142;2023-08-06T01:37:33;15.40;1.00
46438;DHT22;32137;48.728;9.142;2023-08-06T01:39:59;15.30;1.00
46438;DHT22;32137;48.728;9.142;2023-08-06T01:42:24;15.30;1.00
46438;DHT22;32137;48.728;9.142;2023-08-06T01:44:49;15.30;1.00
46438;DHT22;32137;48.728;9.142;2023-08-06T01:47:15;15.20;1.00
46438;DHT22;32137;48.728;9.142;2023-08-06T01:49:40;15.20;1.00
46438;DHT22;32137;48.728;9.142;2023-08-06T01:52:06;15.10;1.00
46438;DHT22;32137;48.728;9.142;2023-08-06T01:54:31;15.20;1.00
46438;DHT22;32137;48.728;9.142;2023-08-06T01:56:57;15.20;1.00
46438;DHT22;32137;48.728;9.142;2023-08-06T01:59:23;15.10;1.00
46438;DHT22;32137;48.728;9.142;2023-08-06T02:01:49;15.10;1.00
46438;DHT22;32137;48.728;9.142;2023-08-06T02:04:14;15.00;1.00
46438;DHT22;32137;48.728;9.142;2023-08-06T02:06:40;14.90;1.00
46438;DHT22;32137;48.728;9.142;2023-08-06T02:09:05;14.90;1.00
46438;DHT22;32137;48.728;9.142;2023-08-06T02:11:31;14.90;1.00
46438;DHT22;32137;48.728;9.142;2023-08-06T02:13:56;14.80;1.00
46438;DHT22;32137;48.728;9.142;2023-08-06T02:16:21;14.80;1.00
46438;DHT22;32137;48.728;9.142;2023-08-06T02:18:47;14.70;1.00
46438;DHT22;32137;48.728;9.142;2023-08-06T02:21:13;14.70;1.00
46438;DHT22;32137;48.728;9.142;2023-08-06T02:23:38;14.70;1.00
46438;DHT22;32137;48.728;9.142;2023-08-06T02:26:04;14.60;1.00
46438;DHT22;32137;48.728;9.142;2023-08-06T02:28:30;14.60;1.00
46438;DHT22;32137;48.728;9.142;2023-08-06T02:30:55;14.60;1.00
46438;DHT22;32137;48.728;9.142;2023-08-06T02:33:21;14.60;1.00
46438;DHT22;32137;48.728;9.142;2023-08-06T02:35:47;14.50;1.00
46438;DHT22;32137;48.728;9.142;2023-08-06T02:38:12;14.50;1.00
46438;DHT22;32137;48.728;9.142;2023-08-06T02:40:46;14.50;1.00
46438;DHT22;32137;48.728;9.142;2023-08-06T02:43:12;14.40;1.00
46438;DHT22;32137;48.728;9.142;2023-08-06T02:45:38;14.40;1.00
46438;DHT22;32137;48.728;9.142;2023-08-06T02:48:03;14.40;1.00
46438;DHT22;32137;48.728;9.142;2023-08-06T02:50:29;14.40;1.00
46438;DHT22;32137;48.728;9.142;2023-08-06T02:52:54;14.30;1.00
46438;DHT22;32137;48.728;9.142;2023-08-06T02:55:21;14.30;1.00
46438;DHT22;32137;48.728;9.142;2023-08-06T02:57:47;14.30;1.00
46438;DHT22;32137;48.728;9.142;2023-08-06T03:00:12;14.30;1.00
46438;DHT22;32137;48.728;9.142;2023-08-06T03:02:38;14.30;1.00
46438;DHT22;32137;48.728;9.142;2023-08-06T03:05:03;14.20;1.00
46438;DHT22;32137;48.728;9.142;2023-08-06T03:07:29;14.30;1.00
46438;DHT22;32137;48.728;9.142;2023-08-06T03:09:54;14.30;1.00
46438;DHT22;32137;48.728;9.142;2023-08-06T03:12:20;14.40;1.00
46438;DHT22;32137;48.728;9.142;2023-08-06T03:14:45;14.40;1.00
46438;DHT22;32137;48.728;9.142;2023-08-06T03:17:11;14.40;1.00
46438;DHT22;32137;48.728;9.142;2023-08-06T03:19:36;14.40;1.00
46438;DHT22;32137;48.728;9.142;2023-08-06T03:22:02;14.40;1.00
46438;DHT22;32137;48.728;9.142;2023-08-06T03:24:27;14.40;1.00
46438;DHT22;32137;48.728;9.142;2023-08-06T03:26:52;14.40;1.00
46438;DHT22;32137;48.728;9.142;2023-08-06T03:29:18;14.40;1.00
46438;DHT22;32137;48.728;9.142;2023-08-06T03:31:44;14.40;1.00
46438;DHT22;32137;48.728;9.142;2023-08-06T03:34:09;14.40;1.00
46438;DHT22;32137;48.728;9.142;2023-08-06T03:36:34;14.40;1.00
46438;DHT22;32137;48.728;9.142;2023-08-06T03:39:00;14.40;1.00
46438;DHT22;32137;48.728;9.142;2023-08-06T03:41:25;14.40;1.00
46438;DHT22;32137;48.728;9.142;2023-08-06T03:43:51;14.40;1.00
46438;DHT22;32137;48.728;9.142;2023-08-06T03:46:16;14.40;1.00
46438;DHT22;32137;48.728;9.142;2023-08-06T03:48:42;14.40;1.00
46438;DHT22;32137;48.728;9.142;2023-08-06T03:51:07;14.40;1.00
46438;DHT22;32137;48.728;9.142;2023-08-06T03:53:33;14.40;1.00
46438;DHT22;32137;48.728;9.142;2023-08-06T03:55:59;14.30;1.00
46438;DHT22;32137;48.728;9.142;2023-08-06T03:58:25;14.30;1.00
46438;DHT22;32137;48.728;9.142;2023-08-06T04:01:01;14.30;1.00
46438;DHT22;32137;48.728;9.142;2023-08-06T04:03:26;14.30;1.00
46438;DHT22;32137;48.728;9.142;2023-08-06T04:05:52;14.30;1.00
46438;DHT22;32137;48.728;9.142;2023-08-06T04:08:17;14.30;1.00
46438;DHT22;32137;48.728;9.142;2023-08-06T04:10:43;14.30;1.00
46438;DHT22;32137;48.728;9.142;2023-08-06T04:13:08;14.40;1.00
46438;DHT22;32137;48.728;9.142;2023-08-06T04:15:34;14.30;1.00
46438;DHT22;32137;48.728;9.142;2023-08-06T04:18:00;14.40;1.00
46438;DHT22;32137;48.728;9.142;2023-08-06T04:20:25;14.40;1.00
46438;DHT22;32137;48.728;9.142;2023-08-06T04:22:50;14.10;99.90
46438;DHT22;32137;48.728;9.142;2023-08-06T04:25:16;13.90;1.00
46438;DHT22;32137;48.728;9.142;2023-08-06T04:27:46;13.70;47.20
46438;DHT22;32137;48.728;9.142;2023-08-06T04:30:12;13.70;99.90
46438;DHT22;32137;48.728;9.142;2023-08-06T04:32:37;13.70;99.90
46438;DHT22;32137;48.728;9.142;2023-08-06T04:35:03;13.60;71.10
46438;DHT22;32137;48.728;9.142;2023-08-06T04:37:29;13.70;99.90
46438;DHT22;32137;48.728;9.142;2023-08-06T04:39:54;13.70;99.90
46438;DHT22;32137;48.728;9.142;2023-08-06T04:42:19;13.80;99.90
46438;DHT22;32137;48.728;9.142;2023-08-06T04:44:45;13.70;99.90
46438;DHT22;32137;48.728;9.142;2023-08-06T04:47:10;13.80;98.30
46438;DHT22;32137;48.728;9.142;2023-08-06T04:49:36;13.80;3.60
46438;DHT22;32137;48.728;9.142;2023-08-06T04:52:01;13.80;19.20
46438;DHT22;32137;48.728;9.142;2023-08-06T04:54:27;13.90;1.00
46438;DHT22;32137;48.728;9.142;2023-08-06T04:56:52;13.90;1.00
46438;DHT22;32137;48.728;9.142;2023-08-06T04:59:18;13.90;1.00
46438;DHT22;32137;48.728;9.142;2023-08-06T05:01:43;14.00;1.00
46438;DHT22;32137;48.728;9.142;2023-08-06T05:04:08;14.00;99.90
46438;DHT22;32137;48.728;9.142;2023-08-06T05:06:34;14.00;1.00
46438;DHT22;32137;48.728;9.142;2023-08-06T05:08:59;14.10;99.90
46438;DHT22;32137;48.728;9.142;2023-08-06T05:11:25;14.10;99.90
46438;DHT22;32137;48.728;9.142;2023-08-06T05:13:50;14.20;99.90
46438;DHT22;32137;48.728;9.142;2023-08-06T05:16:16;14.20;99.90
46438;DHT22;32137;48.728;9.142;2023-08-06T05:18:42;14.10;99.90
46438;DHT22;32137;48.728;9.142;2023-08-06T05:21:07;14.10;99.90
46438;DHT22;32137;48.728;9.142;2023-08-06T05:23:33;14.10;31.00
46438;DHT22;32137;48.728;9.142;2023-08-06T05:25:58;14.00;1.00
46438;DHT22;32137;48.728;9.142;2023-08-06T05:28:23;14.00;1.00
46438;DHT22;32137;48.728;9.142;2023-08-06T05:30:49;14.00;1.00
46438;DHT22;32137;48.728;9.142;2023-08-06T05:33:14;14.00;99.90
46438;DHT22;32137;48.728;9.142;2023-08-06T05:35:40;14.10;1.00
46438;DHT22;32137;48.728;9.142;2023-08-06T05:38:06;14.20;99.90
46438;DHT22;32137;48.728;9.142;2023-08-06T05:40:33;14.20;99.90
46438;DHT22;32137;48.728;9.142;2023-08-06T05:42:58;14.30;99.90
46438;DHT22;32137;48.728;9.142;2023-08-06T05:45:23;14.30;99.90
46438;DHT22;32137;48.728;9.142;2023-08-06T05:47:49;14.30;99.90
46438;DHT22;32137;48.728;9.142;2023-08-06T05:50:15;14.40;99.90
46438;DHT22;32137;48.728;9.142;2023-08-06T05:52:40;14.40;99.90
46438;DHT22;32137;48.728;9.142;2023-08-06T05:55:06;14.50;99.90
46438;DHT22;32137;48.728;9.142;2023-08-06T05:57:31;14.50;99.90
46438;DHT22;32137;48.728;9.142;2023-08-06T05:59:57;14.50;99.90
46438;DHT22;32137;48.728;9.142;2023-08-06T06:02:22;14.50;99.90
46438;DHT22;32137;48.728;9.142;2023-08-06T06:04:48;14.60;99.90
46438;DHT22;32137;48.728;9.142;2023-08-06T06:07:13;14.60;99.90
46438;DHT22;32137;48.728;9.142;2023-08-06T06:09:39;14.50;99.90
46438;DHT22;32137;48.728;9.142;2023-08-06T06:12:05;14.50;99.90
46438;DHT22;32137;48.728;9.142;2023-08-06T06:14:31;14.40;99.90
46438;DHT22;32137;48.728;9.142;2023-08-06T06:16:56;14.40;99.90
46438;DHT22;32137;48.728;9.142;2023-08-06T06:19:22;14.50;99.90
46438;DHT22;32137;48.728;9.142;2023-08-06T06:21:47;14.50;99.90
46438;DHT22;32137;48.728;9.142;2023-08-06T06:24:13;14.60;99.90
46438;DHT22;32137;48.728;9.142;2023-08-06T06:26:38;14.50;99.90
46438;DHT22;32137;48.728;9.142;2023-08-06T06:29:04;14.50;99.90
46438;DHT22;32137;48.728;9.142;2023-08-06T06:31:30;14.40;99.90
46438;DHT22;32137;48.728;9.142;2023-08-06T06:33:55;14.50;99.90
46438;DHT22;32137;48.728;9.142;2023-08-06T06:36:21;14.60;99.90
46438;DHT22;32137;48.728;9.142;2023-08-06T06:38:46;14.60;99.90
46438;DHT22;32137;48.728;9.142;2023-08-06T06:41:12;14.60;99.90
46438;DHT22;32137;48.728;9.142;2023-08-06T06:43:37;14.60;99.90
46438;DHT22;32137;48.728;9.142;2023-08-06T06:46:05;14.60;99.90
46438;DHT22;32137;48.728;9.142;2023-08-06T06:48:31;14.50;99.90
46438;DHT22;32137;48.728;9.142;2023-08-06T06:50:57;14.50;1.00
46438;DHT22;32137;48.728;9.142;2023-08-06T06:53:22;14.50;1.00
46438;DHT22;32137;48.728;9.142;2023-08-06T06:55:54;14.40;1.00
46438;DHT22;32137;48.728;9.142;2023-08-06T06:58:19;14.40;1.00
46438;DHT22;32137;48.728;9.142;2023-08-06T07:00:46;14.30;99.90
46438;DHT22;32137;48.728;9.142;2023-08-06T07:03:11;14.20;99.90
46438;DHT22;32137;48.728;9.142;2023-08-06T07:05:37;14.10;99.90
46438;DHT22;32137;48.728;9.142;2023-08-06T07:08:02;14.10;1.00
46438;DHT22;32137;48.728;9.142;2023-08-06T07:10:28;14.10;1.00
46438;DHT22;32137;48.728;9.142;2023-08-06T07:12:53;14.10;1.00
46438;DHT22;32137;48.728;9.142;2023-08-06T07:15:19;14.00;1.00
46438;DHT22;32137;48.728;9.142;2023-08-06T07:17:45;13.90;99.90
46438;DHT22;32137;48.728;9.142;2023-08-06T07:20:10;14.00;99.90
46438;DHT22;32137;48.728;9.142;2023-08-06T07:22:36;14.00;99.90
46438;DHT22;32137;48.728;9.142;2023-08-06T07:25:02;13.80;99.90
46438;DHT22;32137;48.728;9.142;2023-08-06T07:27:27;13.80;1.00
46438;DHT22;32137;48.728;9.142;2023-08-06T07:29:53;13.90;1.00
46438;DHT22;32137;48.728;9.142;2023-08-06T07:32:18;13.90;1.00
46438;DHT22;32137;48.728;9.142;2023-08-06T07:34:43;13.80;1.00
46438;DHT22;32137;48.728;9.142;2023-08-06T07:37:09;13.80;1.00
46438;DHT22;32137;48.728;9.142;2023-08-06T07:39:34;13.80;1.00
46438;DHT22;32137;48.728;9.142;2023-08-06T07:42:00;13.70;1.00
46438;DHT22;32137;48.728;9.142;2023-08-06T07:44:27;13.70;1.00
46438;DHT22;32137;48.728;9.142;2023-08-06T07:46:53;13.70;1.00
46438;DHT22;32137;48.728;9.142;2023-08-06T07:49:18;13.70;1.00
46438;DHT22;32137;48.728;9.142;2023-08-06T07:51:44;13.70;1.00
46438;DHT22;32137;48.728;9.142;2023-08-06T07:54:09;13.90;1.00
46438;DHT22;32137;48.728;9.142;2023-08-06T07:56:34;13.80;1.00
46438;DHT22;32137;48.728;9.142;2023-08-06T07:59:02;14.00;1.00
46438;DHT22;32137;48.728;9.142;2023-08-06T08:01:27;14.00;1.00
46438;DHT22;32137;48.728;9.142;2023-08-06T08:03:52;14.00;1.00
46438;DHT22;32137;48.728;9.142;2023-08-06T08:06:18;14.10;1.00
46438;DHT22;32137;48.728;9.142;2023-08-06T08:08:43;14.20;5.80
46438;DHT22;32137;48.728;9.142;2023-08-06T08:11:09;14.10;1.00
46438;DHT22;32137;48.728;9.142;2023-08-06T08:13:34;14.20;1.00
46438;DHT22;32137;48.728;9.142;2023-08-06T08:16:00;14.20;1.00
46438;DHT22;32137;48.728;9.142;2023-08-06T08:18:26;14.20;1.00
46438;DHT22;32137;48.728;9.142;2023-08-06T08:20:51;14.20;1.00
46438;DHT22;32137;48.728;9.142;2023-08-06T08:23:17;14.20;1.00
46438;DHT22;32137;48.728;9.142;2023-08-06T08:25:42;14.30;1.00
46438;DHT22;32137;48.728;9.142;2023-08-06T08:28:08;14.30;1.00
46438;DHT22;32137;48.728;9.142;2023-08-06T08:30:33;14.30;99.90
46438;DHT22;32137;48.728;9.142;2023-08-06T08:32:59;14.20;99.90
46438;DHT22;32137;48.728;9.142;2023-08-06T08:35:24;14.10;99.90
46438;DHT22;32137;48.728;9.142;2023-08-06T08:37:50;14.10;99.90
46438;DHT22;32137;48.728;9.142;2023-08-06T08:40:16;14.10;99.90
46438;DHT22;32137;48.728;9.142;2023-08-06T08:42:41;14.00;99.90
46438;DHT22;32137;48.728;9.142;2023-08-06T08:45:11;13.90;99.90
46438;DHT22;32137;48.728;9.142;2023-08-06T08:47:37;13.90;82.80
46438;DHT22;32137;48.728;9.142;2023-08-06T08:50:03;14.00;99.90
46438;DHT22;32137;48.728;9.142;2023-08-06T08:52:30;13.80;1.00
46438;DHT22;32137;48.728;9.142;2023-08-06T08:54:57;13.90;67.90
46438;DHT22;32137;48.728;9.142;2023-08-06T08:57:23;13.90;51.50
46438;DHT22;32137;48.728;9.142;2023-08-06T08:59:49;13.90;75.00
46438;DHT22;32137;48.728;9.142;2023-08-06T09:02:15;14.20;99.90
46438;DHT22;32137;48.728;9.142;2023-08-06T09:04:41;14.20;99.90
46438;DHT22;32137;48.728;9.142;2023-08-06T09:07:08;14.30;99.90
46438;DHT22;32137;48.728;9.142;2023-08-06T09:09:35;14.30;46.20
46438;DHT22;32137;48.728;9.142;2023-08-06T09:12:11;14.30;30.30
46438;DHT22;32137;48.728;9.142;2023-08-06T09:14:37;14.40;42.80
46438;DHT22;32137;48.728;9.142;2023-08-06T09:17:03;14.50;90.40
46438;DHT22;32137;48.728;9.142;2023-08-06T09:19:29;14.60;54.60
46438;DHT22;32137;48.728;9.142;2023-08-06T09:21:55;14.80;37.20
46438;DHT22;32137;48.728;9.142;2023-08-06T09:24:20;14.90;1.00
46438;DHT22;32137;48.728;9.142;2023-08-06T09:26:47;14.90;1.00
46438;DHT22;32137;48.728;9.142;2023-08-06T09:29:12;15.00;1.00
46438;DHT22;32137;48.728;9.142;2023-08-06T09:31:45;15.00;99.90
46438;DHT22;32137;48.728;9.142;2023-08-06T09:34:11;14.90;99.90
46438;DHT22;32137;48.728;9.142;2023-08-06T09:36:41;14.90;99.90
46438;DHT22;32137;48.728;9.142;2023-08-06T09:39:14;14.70;99.90
46438;DHT22;32137;48.728;9.142;2023-08-06T09:41:40;14.50;1.00
46438;DHT22;32137;48.728;9.142;2023-08-06T09:44:12;14.50;99.90
46438;DHT22;32137;48.728;9.142;2023-08-06T09:46:40;14.60;99.90
46438;DHT22;32137;48.728;9.142;2023-08-06T09:49:05;14.50;29.00
46438;DHT22;32137;48.728;9.142;2023-08-06T09:51:33;14.60;99.90
46438;DHT22;32137;48.728;9.142;2023-08-06T09:53:59;14.50;1.00
46438;DHT22;32137;48.728;9.142;2023-08-06T09:56:26;14.50;12.40
46438;DHT22;32137;48.728;9.142;2023-08-06T09:58:51;14.30;99.90
46438;DHT22;32137;48.728;9.142;2023-08-06T10:01:17;14.30;99.90
46438;DHT22;32137;48.728;9.142;2023-08-06T10:03:44;14.10;1.00
46438;DHT22;32137;48.728;9.142;2023-08-06T10:06:09;14.20;99.90
46438;DHT22;32137;48.728;9.142;2023-08-06T10:08:35;14.10;99.90
46438;DHT22;32137;48.728;9.142;2023-08-06T10:11:02;14.30;99.90
46438;DHT22;32137;48.728;9.142;2023-08-06T10:13:30;13.90;99.90
46438;DHT22;32137;48.728;9.142;2023-08-06T10:15:55;13.80;99.90
46438;DHT22;32137;48.728;9.142;2023-08-06T10:18:21;14.10;99.90
46438;DHT22;32137;48.728;9.142;2023-08-06T10:20:47;14.60;99.90
46438;DHT22;32137;48.728;9.142;2023-08-06T10:23:13;14.30;99.90
46438;DHT22;32137;48.728;9.142;2023-08-06T10:25:40;14.00;99.90
46438;DHT22;32137;48.728;9.142;2023-08-06T10:28:12;14.60;99.90
46438;DHT22;32137;48.728;9.142;2023-08-06T10:33:09;14.80;99.90
46438;DHT22;32137;48.728;9.142;2023-08-06T10:38:04;14.80;99.90
46438;DHT22;32137;48.728;9.142;2023-08-06T10:40:29;14.80;99.90
46438;DHT22;32137;48.728;9.142;2023-08-06T10:42:58;14.10;99.90
46438;DHT22;32137;48.728;9.142;2023-08-06T10:45:23;14.00;99.90
46438;DHT22;32137;48.728;9.142;2023-08-06T10:47:53;14.10;99.90
46438;DHT22;32137;48.728;9.142;2023-08-06T10:50:19;14.60;99.90
46438;DHT22;32137;48.728;9.142;2023-08-06T10:52:45;14.20;99.90
46438;DHT22;32137;48.728;9.142;2023-08-06T10:55:12;14.80;99.90
46438;DHT22;32137;48.728;9.142;2023-08-06T10:57:37;14.60;99.90
46438;DHT22;32137;48.728;9.142;2023-08-06T11:00:06;14.70;99.90
46438;DHT22;32137;48.728;9.142;2023-08-06T11:02:35;14.30;99.90
46438;DHT22;32137;48.728;9.142;2023-08-06T11:05:07;14.40;99.90
46438;DHT22;32137;48.728;9.142;2023-08-06T11:07:36;14.50;99.90
46438;DHT22;32137;48.728;9.142;2023-08-06T11:10:05;14.70;99.90
46438;DHT22;32137;48.728;9.142;2023-08-06T11:12:32;14.30;99.90
46438;DHT22;32137;48.728;9.142;2023-08-06T11:14:58;14.40;99.90
46438;DHT22;32137;48.728;9.142;2023-08-06T11:17:23;14.10;99.90
46438;DHT22;32137;48.728;9.142;2023-08-06T11:19:49;14.30;99.90
46438;DHT22;32137;48.728;9.142;2023-08-06T11:22:15;14.10;99.90
46438;DHT22;32137;48.728;9.142;2023-08-06T11:24:41;13.80;99.90
46438;DHT22;32137;48.728;9.142;2023-08-06T11:27:13;13.90;99.90
46438;DHT22;32137;48.728;9.142;2023-08-06T11:29:40;13.90;99.90
46438;DHT22;32137;48.728;9.142;2023-08-06T11:32:05;13.90;99.90
46438;DHT22;32137;48.728;9.142;2023-08-06T11:34:31;14.00;99.90
46438;DHT22;32137;48.728;9.142;2023-08-06T11:36:56;13.90;99.90
46438;DHT22;32137;48.728;9.142;2023-08-06T11:39:22;14.00;99.90
46438;DHT22;32137;48.728;9.142;2023-08-06T11:41:48;14.00;99.90
46438;DHT22;32137;48.728;9.142;2023-08-06T11:44:13;13.90;99.90
46438;DHT22;32137;48.728;9.142;2023-08-06T11:46:52;13.60;99.90
46438;DHT22;32137;48.728;9.142;2023-08-06T11:49:17;13.90;99.90
46438;DHT22;32137;48.728;9.142;2023-08-06T11:51:47;13.50;99.90
46438;DHT22;32137;48.728;9.142;2023-08-06T11:54:13;14.00;99.90
46438;DHT22;32137;48.728;9.142;2023-08-06T11:56:38;14.00;99.90
46438;DHT22;32137;48.728;9.142;2023-08-06T11:59:03;13.80;99.90
46438;DHT22;32137;48.728;9.142;2023-08-06T12:01:29;13.70;99.90
46438;DHT22;32137;48.728;9.142;2023-08-06T12:04:00;13.80;99.90
46438;DHT22;32137;48.728;9.142;2023-08-06T12:06:29;13.80;99.90
46438;DHT22;32137;48.728;9.142;2023-08-06T12:08:54;13.20;99.90
46438;DHT22;32137;48.728;9.142;2023-08-06T12:11:23;13.40;99.90
46438;DHT22;32137;48.728;9.142;2023-08-06T12:13:52;13.60;99.90
46438;DHT22;32137;48.728;9.142;2023-08-06T12:16:17;14.00;99.90
46438;DHT22;32137;48.728;9.142;2023-08-06T12:18:44;13.80;99.90
46438;DHT22;32137;48.728;9.142;2023-08-06T12:21:10;13.90;99.90
46438;DHT22;32137;48.728;9.142;2023-08-06T12:23:35;14.00;99.90
46438;DHT22;32137;48.728;9.142;2023-08-06T12:26:01;13.90;99.90
46438;DHT22;32137;48.728;9.142;2023-08-06T12:28:27;13.90;99.90
46438;DHT22;32137;48.728;9.142;2023-08-06T12:30:52;13.70;99.90
46438;DHT22;32137;48.728;9.142;2023-08-06T12:33:20;13.30;99.90
46438;DHT22;32137;48.728;9.142;2023-08-06T12:35:45;13.40;99.90
46438;DHT22;32137;48.728;9.142;2023-08-06T12:38:11;13.50;99.90
46438;DHT22;32137;48.728;9.142;2023-08-06T12:40:36;14.20;99.90
46438;DHT22;32137;48.728;9.142;2023-08-06T12:43:02;14.40;99.90
46438;DHT22;32137;48.728;9.142;2023-08-06T12:45:28;14.60;30.90
46438;DHT22;32137;48.728;9.142;2023-08-06T12:47:53;14.60;1.00
46438;DHT22;32137;48.728;9.142;2023-08-06T12:50:19;14.30;1.00
46438;DHT22;32137;48.728;9.142;2023-08-06T12:52:44;14.60;99.90
46438;DHT22;32137;48.728;9.142;2023-08-06T12:55:10;14.10;99.90
46438;DHT22;32137;48.728;9.142;2023-08-06T12:57:35;14.10;99.90
46438;DHT22;32137;48.728;9.142;2023-08-06T13:00:01;14.00;86.10
46438;DHT22;32137;48.728;9.142;2023-08-06T13:02:26;14.00;1.00
46438;DHT22;32137;48.728;9.142;2023-08-06T13:04:55;14.20;1.00
46438;DHT22;32137;48.728;9.142;2023-08-06T13:07:20;14.20;1.00
46438;DHT22;32137;48.728;9.142;2023-08-06T13:09:46;14.10;99.90
46438;DHT22;32137;48.728;9.142;2023-08-06T13:12:12;14.10;99.90
46438;DHT22;32137;48.728;9.142;2023-08-06T13:14:37;14.20;99.90
46438;DHT22;32137;48.728;9.142;2023-08-06T13:17:02;14.00;1.00
46438;DHT22;32137;48.728;9.142;2023-08-06T13:19:31;14.40;1.80
46438;DHT22;32137;48.728;9.142;2023-08-06T13:22:01;16.00;1.00
46438;DHT22;32137;48.728;9.142;2023-08-06T13:24:28;15.70;1.00
46438;DHT22;32137;48.728;9.142;2023-08-06T13:26:53;15.10;1.00
46438;DHT22;32137;48.728;9.142;2023-08-06T13:29:19;15.10;1.00
46438;DHT22;32137;48.728;9.142;2023-08-06T13:31:45;14.80;99.90
46438;DHT22;32137;48.728;9.142;2023-08-06T13:34:10;15.10;99.90
46438;DHT22;32137;48.728;9.142;2023-08-06T13:36:36;14.90;99.90
46438;DHT22;32137;48.728;9.142;2023-08-06T13:39:01;14.80;99.90
46438;DHT22;32137;48.728;9.142;2023-08-06T13:41:28;14.70;99.90
46438;DHT22;32137;48.728;9.142;2023-08-06T13:43:54;14.70;1.00
46438;DHT22;32137;48.728;9.142;2023-08-06T13:46:19;14.80;1.00
46438;DHT22;32137;48.728;9.142;2023-08-06T13:48:45;14.60;99.90
46438;DHT22;32137;48.728;9.142;2023-08-06T13:51:11;14.60;99.90
46438;DHT22;32137;48.728;9.142;2023-08-06T13:53:37;14.50;99.90
46438;DHT22;32137;48.728;9.142;2023-08-06T13:56:03;14.50;99.90
46438;DHT22;32137;48.728;9.142;2023-08-06T13:58:28;14.60;1.00
46438;DHT22;32137;48.728;9.142;2023-08-06T14:00:54;14.60;99.90
46438;DHT22;32137;48.728;9.142;2023-08-06T14:03:19;14.70;99.90
46438;DHT22;32137;48.728;9.142;2023-08-06T14:05:45;15.00;99.90
46438;DHT22;32137;48.728;9.142;2023-08-06T14:08:10;15.00;99.90
46438;DHT22;32137;48.728;9.142;2023-08-06T14:10:36;15.30;99.90
46438;DHT22;32137;48.728;9.142;2023-08-06T14:13:01;15.40;1.00
46438;DHT22;32137;48.728;9.142;2023-08-06T14:15:27;15.50;1.00
46438;DHT22;32137;48.728;9.142;2023-08-06T14:17:52;15.40;1.00
46438;DHT22;32137;48.728;9.142;2023-08-06T14:20:18;15.60;35.60
46438;DHT22;32137;48.728;9.142;2023-08-06T14:22:43;15.90;1.00
46438;DHT22;32137;48.728;9.142;2023-08-06T14:25:09;16.10;1.00
46438;DHT22;32137;48.728;9.142;2023-08-06T14:27:34;16.20;1.00
46438;DHT22;32137;48.728;9.142;2023-08-06T14:30:00;16.00;99.90
46438;DHT22;32137;48.728;9.142;2023-08-06T14:32:27;15.80;1.00
46438;DHT22;32137;48.728;9.142;2023-08-06T14:34:53;15.50;1.00
46438;DHT22;32137;48.728;9.142;2023-08-06T14:37:18;15.30;1.00
46438;DHT22;32137;48.728;9.142;2023-08-06T14:39:44;15.00;1.00
46438;DHT22;32137;48.728;9.142;2023-08-06T14:42:09;14.80;55.70
46438;DHT22;32137;48.728;9.142;2023-08-06T14:44:35;14.70;1.00
46438;DHT22;32137;48.728;9.142;2023-08-06T14:47:00;14.60;99.90
46438;DHT22;32137;48.728;9.142;2023-08-06T14:49:26;14.50;99.90
46438;DHT22;32137;48.728;9.142;2023-08-06T14:51:51;14.30;99.90
46438;DHT22;32137;48.728;9.142;2023-08-06T14:54:17;14.30;99.90
46438;DHT22;32137;48.728;9.142;2023-08-06T14:56:43;14.40;99.90
46438;DHT22;32137;48.728;9.142;2023-08-06T14:59:09;14.50;99.90
46438;DHT22;32137;48.728;9.142;2023-08-06T15:01:34;14.40;99.90
46438;DHT22;32137;48.728;9.142;2023-08-06T15:03:59;14.30;99.90
46438;DHT22;32137;48.728;9.142;2023-08-06T15:06:25;14.30;99.90
46438;DHT22;32137;48.728;9.142;2023-08-06T15:08:50;14.30;99.90
46438;DHT22;32137;48.728;9.142;2023-08-06T15:11:16;14.20;99.90
46438;DHT22;32137;48.728;9.142;2023-08-06T15:13:41;14.30;99.90
46438;DHT22;32137;48.728;9.142;2023-08-06T15:16:07;14.50;1.00
46438;DHT22;32137;48.728;9.142;2023-08-06T15:18:32;14.70;99.90
46438;DHT22;32137;48.728;9.142;2023-08-06T15:20:58;15.10;99.90
46438;DHT22;32137;48.728;9.142;2023-08-06T15:23:24;15.40;99.90
46438;DHT22;32137;48.728;9.142;2023-08-06T15:25:49;15.50;28.70
46438;DHT22;32137;48.728;9.142;2023-08-06T15:28:15;15.50;1.00
46438;DHT22;32137;48.728;9.142;2023-08-06T15:30:40;15.50;1.00
46438;DHT22;32137;48.728;9.142;2023-08-06T15:33:10;15.70;99.90
46438;DHT22;32137;48.728;9.142;2023-08-06T15:35:35;15.80;99.90
46438;DHT22;32137;48.728;9.142;2023-08-06T15:38:01;15.60;99.90
46438;DHT22;32137;48.728;9.142;2023-08-06T15:40:26;15.50;99.90